KSUE

Door County Cherryland Airport

Sturgeon Bay, Wisconsin, USA
METAR KSUE 171756Z AUTO 27017G25KT 10SM SCT050 OVC065 07/M05 A3022 RMK AO2 PK WND 29027/1719 SLP257 6//// T00671050 10067 20028 53014
Observed Flight Rules
Oct-17 @ 17:56 UTC (25 minutes ago) Visual Flight Rules
Wind Visibility Clouds
270° at 17 knots
 Gusting to 25 knots
10 miles
  • Scattered at 5,000' AGL
  • Overcast at 6,500' AGL
Temperatures Readings
Current 7°C / 45°F
Dewpoint -5°C / 23°F
Humidity 42%
Altimeter 30.22" Hg
Pressure 1025.7 hPa
Elevation 221
METAR KSUE 171756Z AUTO 27017G25KT 10SM SCT050 OVC065 07/M05 A3022 RMK AO2 PK WND 29027/1719 SLP257 6//// T00671050 10067 20028 53014
Observed Flight Rules
Oct-17 @ 17:56 UTC
(25 minutes ago)
VFR
Wind Visibility
270° at 17 knots
 Gusting to 25 knots
10 miles
Clouds
  • Scattered at 5,000' AGL
  • Overcast at 6,500' AGL
Temperature Dewpoint
7°C / 45°F -5°C / 23°F
Humidity Altimeter Pressure
42% 30.22" Hg 1025.7 hPa